Schoonhoven, Netherlands
Current Conditions -  °F | °C
As of 12:55 AM on Monday 24 Nov 2014 (Local Time) from EHRD Reporting Station
Light Rain Light Rain  
Wind Chill: 45°   Ceiling: 1500
Heat Index: 48°   Visibility: 6mi
Dew Point: 46°   Wind: 7mph
Humidity: 93%   Direction: 330°NNW
Pressure: 30.03"   Gusts: NA
Location:  51.95°N, 4.85°E
Report Text: EHRD 232355Z AUTO 33006KT 300V360 9999 -RA FEW009 BKN015CB09/08 Q1017 BECMG SCT015
Loading
Personal Weather Stations






























Interactive Weather Map New forecast layout! Learn more

10-Day Weather Forecast

Advertisements
Track Severe Weather on mobile